sensor_id;sensor_type;location;lat;lon;timestamp;P1;durP1;ratioP1;P2;durP2;ratioP2
215;SDS011;70668;48.81286795;9.14184224;2023-09-07T00:01:17;9.70;;;6.53;;
215;SDS011;70668;48.81286795;9.14184224;2023-09-07T00:03:46;11.67;;;7.23;;
215;SDS011;70668;48.81286795;9.14184224;2023-09-07T00:06:17;10.53;;;6.83;;
215;SDS011;70668;48.81286795;9.14184224;2023-09-07T00:08:46;11.20;;;6.70;;
215;SDS011;70668;48.81286795;9.14184224;2023-09-07T00:11:14;11.13;;;6.87;;
215;SDS011;70668;48.81286795;9.14184224;2023-09-07T00:13:43;13.90;;;6.73;;
215;SDS011;70668;48.81286795;9.14184224;2023-09-07T00:16:11;10.70;;;6.70;;
215;SDS011;70668;48.81286795;9.14184224;2023-09-07T00:18:39;12.80;;;6.47;;
215;SDS011;70668;48.81286795;9.14184224;2023-09-07T00:21:08;12.10;;;7.10;;
215;SDS011;70668;48.81286795;9.14184224;2023-09-07T00:23:39;11.60;;;6.70;;
215;SDS011;70668;48.81286795;9.14184224;2023-09-07T00:26:07;13.80;;;6.77;;
215;SDS011;70668;48.81286795;9.14184224;2023-09-07T00:28:38;9.10;;;6.50;;
215;SDS011;70668;48.81286795;9.14184224;2023-09-07T00:31:07;9.40;;;6.13;;
215;SDS011;70668;48.81286795;9.14184224;2023-09-07T00:33:35;12.03;;;6.30;;
215;SDS011;70668;48.81286795;9.14184224;2023-09-07T00:36:04;9.80;;;6.30;;
215;SDS011;70668;48.81286795;9.14184224;2023-09-07T00:38:32;8.83;;;6.37;;
215;SDS011;70668;48.81286795;9.14184224;2023-09-07T00:41:03;10.27;;;6.50;;
215;SDS011;70668;48.81286795;9.14184224;2023-09-07T00:43:32;9.13;;;6.67;;
215;SDS011;70668;48.81286795;9.14184224;2023-09-07T00:46:00;11.50;;;6.60;;
215;SDS011;70668;48.81286795;9.14184224;2023-09-07T00:48:29;12.60;;;6.60;;
215;SDS011;70668;48.81286795;9.14184224;2023-09-07T00:50:57;9.50;;;6.20;;
215;SDS011;70668;48.81286795;9.14184224;2023-09-07T00:53:26;8.83;;;6.20;;
215;SDS011;70668;48.81286795;9.14184224;2023-09-07T00:55:55;9.10;;;6.40;;
215;SDS011;70668;48.81286795;9.14184224;2023-09-07T00:58:26;12.53;;;6.80;;
215;SDS011;70668;48.81286795;9.14184224;2023-09-07T01:00:55;13.30;;;6.23;;
215;SDS011;70668;48.81286795;9.14184224;2023-09-07T01:03:23;10.80;;;6.47;;
215;SDS011;70668;48.81286795;9.14184224;2023-09-07T01:05:52;10.00;;;6.57;;
215;SDS011;70668;48.81286795;9.14184224;2023-09-07T01:08:26;10.33;;;6.17;;
215;SDS011;70668;48.81286795;9.14184224;2023-09-07T01:11:00;11.70;;;6.70;;
215;SDS011;70668;48.81286795;9.14184224;2023-09-07T01:13:32;9.77;;;6.20;;
215;SDS011;70668;48.81286795;9.14184224;2023-09-07T01:16:00;11.00;;;6.60;;
215;SDS011;70668;48.81286795;9.14184224;2023-09-07T01:18:28;10.10;;;6.47;;
215;SDS011;70668;48.81286795;9.14184224;2023-09-07T01:20:57;12.90;;;6.90;;
215;SDS011;70668;48.81286795;9.14184224;2023-09-07T01:23:28;8.50;;;6.30;;
215;SDS011;70668;48.81286795;9.14184224;2023-09-07T01:25:57;9.80;;;6.83;;
215;SDS011;70668;48.81286795;9.14184224;2023-09-07T01:28:25;10.10;;;6.63;;
215;SDS011;70668;48.81286795;9.14184224;2023-09-07T01:30:54;9.67;;;6.23;;
215;SDS011;70668;48.81286795;9.14184224;2023-09-07T01:33:22;11.70;;;6.60;;
215;SDS011;70668;48.81286795;9.14184224;2023-09-07T01:35:51;13.30;;;7.10;;
215;SDS011;70668;48.81286795;9.14184224;2023-09-07T01:38:20;10.30;;;6.57;;
215;SDS011;70668;48.81286795;9.14184224;2023-09-07T01:40:51;11.70;;;6.60;;
215;SDS011;70668;48.81286795;9.14184224;2023-09-07T01:43:20;10.53;;;6.03;;
215;SDS011;70668;48.81286795;9.14184224;2023-09-07T01:45:48;11.57;;;6.43;;
215;SDS011;70668;48.81286795;9.14184224;2023-09-07T01:48:17;14.70;;;6.80;;
215;SDS011;70668;48.81286795;9.14184224;2023-09-07T01:50:45;9.20;;;6.30;;
215;SDS011;70668;48.81286795;9.14184224;2023-09-07T01:53:13;15.53;;;6.83;;
215;SDS011;70668;48.81286795;9.14184224;2023-09-07T01:55:42;10.30;;;6.30;;
215;SDS011;70668;48.81286795;9.14184224;2023-09-07T01:58:13;8.23;;;5.90;;
215;SDS011;70668;48.81286795;9.14184224;2023-09-07T02:00:41;9.97;;;6.37;;
215;SDS011;70668;48.81286795;9.14184224;2023-09-07T02:03:09;9.37;;;6.60;;
215;SDS011;70668;48.81286795;9.14184224;2023-09-07T02:05:38;9.87;;;6.40;;
215;SDS011;70668;48.81286795;9.14184224;2023-09-07T02:08:07;11.50;;;7.20;;
215;SDS011;70668;48.81286795;9.14184224;2023-09-07T02:10:35;13.03;;;6.90;;
215;SDS011;70668;48.81286795;9.14184224;2023-09-07T02:13:03;10.80;;;6.83;;
215;SDS011;70668;48.81286795;9.14184224;2023-09-07T02:15:34;10.30;;;7.20;;
215;SDS011;70668;48.81286795;9.14184224;2023-09-07T02:18:06;10.60;;;7.03;;
215;SDS011;70668;48.81286795;9.14184224;2023-09-07T02:20:34;12.73;;;7.20;;
215;SDS011;70668;48.81286795;9.14184224;2023-09-07T02:23:03;11.57;;;6.63;;
215;SDS011;70668;48.81286795;9.14184224;2023-09-07T02:25:31;10.57;;;6.47;;
215;SDS011;70668;48.81286795;9.14184224;2023-09-07T02:28:00;10.67;;;7.10;;
215;SDS011;70668;48.81286795;9.14184224;2023-09-07T02:30:28;10.37;;;6.70;;
215;SDS011;70668;48.81286795;9.14184224;2023-09-07T02:33:00;11.00;;;7.00;;
215;SDS011;70668;48.81286795;9.14184224;2023-09-07T02:35:29;9.60;;;7.10;;
215;SDS011;70668;48.81286795;9.14184224;2023-09-07T02:37:58;13.70;;;7.00;;
215;SDS011;70668;48.81286795;9.14184224;2023-09-07T02:40:26;10.80;;;6.67;;
215;SDS011;70668;48.81286795;9.14184224;2023-09-07T02:42:55;10.13;;;7.10;;
215;SDS011;70668;48.81286795;9.14184224;2023-09-07T02:45:23;9.30;;;6.77;;
215;SDS011;70668;48.81286795;9.14184224;2023-09-07T02:47:51;15.10;;;7.37;;
215;SDS011;70668;48.81286795;9.14184224;2023-09-07T02:50:22;11.13;;;7.10;;
215;SDS011;70668;48.81286795;9.14184224;2023-09-07T02:52:51;14.00;;;7.20;;
215;SDS011;70668;48.81286795;9.14184224;2023-09-07T02:55:19;11.13;;;6.90;;
215;SDS011;70668;48.81286795;9.14184224;2023-09-07T02:57:48;11.53;;;7.53;;
215;SDS011;70668;48.81286795;9.14184224;2023-09-07T03:00:16;11.15;;;7.30;;
215;SDS011;70668;48.81286795;9.14184224;2023-09-07T03:02:45;13.27;;;7.40;;
215;SDS011;70668;48.81286795;9.14184224;2023-09-07T03:05:14;12.63;;;6.80;;
215;SDS011;70668;48.81286795;9.14184224;2023-09-07T03:07:47;9.53;;;7.20;;
215;SDS011;70668;48.81286795;9.14184224;2023-09-07T03:10:17;12.53;;;7.33;;
215;SDS011;70668;48.81286795;9.14184224;2023-09-07T03:12:44;9.93;;;6.97;;
215;SDS011;70668;48.81286795;9.14184224;2023-09-07T03:15:13;11.43;;;7.30;;
215;SDS011;70668;48.81286795;9.14184224;2023-09-07T03:17:41;10.47;;;7.00;;
215;SDS011;70668;48.81286795;9.14184224;2023-09-07T03:20:11;12.53;;;7.10;;
215;SDS011;70668;48.81286795;9.14184224;2023-09-07T03:22:46;11.63;;;7.20;;
215;SDS011;70668;48.81286795;9.14184224;2023-09-07T03:25:15;14.43;;;7.20;;
215;SDS011;70668;48.81286795;9.14184224;2023-09-07T03:27:44;12.87;;;7.50;;
215;SDS011;70668;48.81286795;9.14184224;2023-09-07T03:30:14;11.93;;;7.20;;
215;SDS011;70668;48.81286795;9.14184224;2023-09-07T03:32:42;11.43;;;7.20;;
215;SDS011;70668;48.81286795;9.14184224;2023-09-07T03:35:11;14.40;;;7.40;;
215;SDS011;70668;48.81286795;9.14184224;2023-09-07T03:37:41;10.07;;;7.07;;
215;SDS011;70668;48.81286795;9.14184224;2023-09-07T03:40:13;12.83;;;7.03;;
215;SDS011;70668;48.81286795;9.14184224;2023-09-07T03:42:41;9.70;;;6.80;;
215;SDS011;70668;48.81286795;9.14184224;2023-09-07T03:45:12;11.47;;;7.33;;
215;SDS011;70668;48.81286795;9.14184224;2023-09-07T03:47:40;11.53;;;7.23;;
215;SDS011;70668;48.81286795;9.14184224;2023-09-07T03:50:11;11.93;;;7.57;;
215;SDS011;70668;48.81286795;9.14184224;2023-09-07T03:52:40;12.30;;;7.80;;
215;SDS011;70668;48.81286795;9.14184224;2023-09-07T03:55:08;13.33;;;7.70;;
215;SDS011;70668;48.81286795;9.14184224;2023-09-07T03:57:40;13.93;;;7.33;;
215;SDS011;70668;48.81286795;9.14184224;2023-09-07T04:00:10;15.00;;;7.80;;
215;SDS011;70668;48.81286795;9.14184224;2023-09-07T04:02:45;11.93;;;7.63;;
215;SDS011;70668;48.81286795;9.14184224;2023-09-07T04:05:13;15.47;;;7.90;;
215;SDS011;70668;48.81286795;9.14184224;2023-09-07T04:07:42;14.17;;;7.60;;
215;SDS011;70668;48.81286795;9.14184224;2023-09-07T04:10:11;11.50;;;6.90;;
215;SDS011;70668;48.81286795;9.14184224;2023-09-07T04:12:42;12.97;;;7.60;;
215;SDS011;70668;48.81286795;9.14184224;2023-09-07T04:15:10;12.90;;;7.47;;
215;SDS011;70668;48.81286795;9.14184224;2023-09-07T04:17:38;10.43;;;7.40;;
215;SDS011;70668;48.81286795;9.14184224;2023-09-07T04:20:08;13.60;;;7.70;;
215;SDS011;70668;48.81286795;9.14184224;2023-09-07T04:22:38;14.60;;;8.20;;
215;SDS011;70668;48.81286795;9.14184224;2023-09-07T04:25:07;11.33;;;8.10;;
215;SDS011;70668;48.81286795;9.14184224;2023-09-07T04:27:36;13.27;;;7.43;;
215;SDS011;70668;48.81286795;9.14184224;2023-09-07T04:30:09;12.00;;;7.63;;
215;SDS011;70668;48.81286795;9.14184224;2023-09-07T04:32:38;12.93;;;8.17;;
215;SDS011;70668;48.81286795;9.14184224;2023-09-07T04:35:07;15.97;;;7.70;;
215;SDS011;70668;48.81286795;9.14184224;2023-09-07T04:37:36;12.73;;;7.70;;
215;SDS011;70668;48.81286795;9.14184224;2023-09-07T04:40:05;13.87;;;7.20;;
215;SDS011;70668;48.81286795;9.14184224;2023-09-07T04:42:34;13.73;;;8.00;;
215;SDS011;70668;48.81286795;9.14184224;2023-09-07T04:45:04;12.60;;;7.43;;
215;SDS011;70668;48.81286795;9.14184224;2023-09-07T04:47:35;14.27;;;7.60;;
215;SDS011;70668;48.81286795;9.14184224;2023-09-07T04:50:05;15.97;;;7.83;;
215;SDS011;70668;48.81286795;9.14184224;2023-09-07T04:52:34;11.97;;;7.70;;
215;SDS011;70668;48.81286795;9.14184224;2023-09-07T04:55:03;11.30;;;7.63;;
215;SDS011;70668;48.81286795;9.14184224;2023-09-07T04:57:34;13.63;;;7.50;;
215;SDS011;70668;48.81286795;9.14184224;2023-09-07T05:00:05;12.70;;;8.47;;
215;SDS011;70668;48.81286795;9.14184224;2023-09-07T05:02:37;13.30;;;8.27;;
215;SDS011;70668;48.81286795;9.14184224;2023-09-07T05:05:08;13.20;;;8.60;;
215;SDS011;70668;48.81286795;9.14184224;2023-09-07T05:07:36;15.30;;;9.20;;
215;SDS011;70668;48.81286795;9.14184224;2023-09-07T05:10:06;15.63;;;9.50;;
215;SDS011;70668;48.81286795;9.14184224;2023-09-07T05:12:37;16.70;;;9.57;;
215;SDS011;70668;48.81286795;9.14184224;2023-09-07T05:15:06;14.80;;;9.80;;
215;SDS011;70668;48.81286795;9.14184224;2023-09-07T05:17:37;16.47;;;9.13;;
215;SDS011;70668;48.81286795;9.14184224;2023-09-07T05:20:07;14.50;;;8.47;;
215;SDS011;70668;48.81286795;9.14184224;2023-09-07T05:22:36;12.53;;;8.03;;
215;SDS011;70668;48.81286795;9.14184224;2023-09-07T05:25:07;12.47;;;8.33;;
215;SDS011;70668;48.81286795;9.14184224;2023-09-07T05:27:36;15.03;;;8.37;;
215;SDS011;70668;48.81286795;9.14184224;2023-09-07T05:30:05;13.37;;;8.30;;
215;SDS011;70668;48.81286795;9.14184224;2023-09-07T05:32:37;13.83;;;8.40;;
215;SDS011;70668;48.81286795;9.14184224;2023-09-07T05:35:07;13.80;;;8.47;;
215;SDS011;70668;48.81286795;9.14184224;2023-09-07T05:37:37;13.63;;;8.57;;
215;SDS011;70668;48.81286795;9.14184224;2023-09-07T05:40:06;12.90;;;8.10;;
215;SDS011;70668;48.81286795;9.14184224;2023-09-07T05:42:35;13.20;;;7.90;;
215;SDS011;70668;48.81286795;9.14184224;2023-09-07T05:45:04;14.40;;;8.00;;
215;SDS011;70668;48.81286795;9.14184224;2023-09-07T05:47:37;13.57;;;7.63;;
215;SDS011;70668;48.81286795;9.14184224;2023-09-07T05:50:05;15.30;;;8.57;;
215;SDS011;70668;48.81286795;9.14184224;2023-09-07T05:52:34;26.23;;;9.50;;
215;SDS011;70668;48.81286795;9.14184224;2023-09-07T05:55:03;19.50;;;11.20;;
215;SDS011;70668;48.81286795;9.14184224;2023-09-07T05:57:32;14.73;;;9.70;;
215;SDS011;70668;48.81286795;9.14184224;2023-09-07T06:00:01;17.53;;;9.37;;
215;SDS011;70668;48.81286795;9.14184224;2023-09-07T06:02:41;14.13;;;9.60;;
215;SDS011;70668;48.81286795;9.14184224;2023-09-07T06:05:11;14.47;;;9.13;;
215;SDS011;70668;48.81286795;9.14184224;2023-09-07T06:07:39;18.40;;;9.37;;
215;SDS011;70668;48.81286795;9.14184224;2023-09-07T06:10:08;17.00;;;9.53;;
215;SDS011;70668;48.81286795;9.14184224;2023-09-07T06:12:37;16.40;;;10.03;;
215;SDS011;70668;48.81286795;9.14184224;2023-09-07T06:15:07;18.50;;;11.00;;
215;SDS011;70668;48.81286795;9.14184224;2023-09-07T06:17:36;18.10;;;9.93;;
215;SDS011;70668;48.81286795;9.14184224;2023-09-07T06:20:08;15.53;;;9.93;;
215;SDS011;70668;48.81286795;9.14184224;2023-09-07T06:22:37;21.53;;;11.57;;
215;SDS011;70668;48.81286795;9.14184224;2023-09-07T06:25:06;17.20;;;10.80;;
215;SDS011;70668;48.81286795;9.14184224;2023-09-07T06:27:35;18.03;;;10.80;;
215;SDS011;70668;48.81286795;9.14184224;2023-09-07T06:30:04;18.33;;;10.60;;
215;SDS011;70668;48.81286795;9.14184224;2023-09-07T06:32:35;17.77;;;10.07;;
215;SDS011;70668;48.81286795;9.14184224;2023-09-07T06:35:09;25.70;;;11.30;;
215;SDS011;70668;48.81286795;9.14184224;2023-09-07T06:37:38;17.87;;;11.37;;
215;SDS011;70668;48.81286795;9.14184224;2023-09-07T06:40:10;18.67;;;11.43;;
215;SDS011;70668;48.81286795;9.14184224;2023-09-07T06:42:41;19.27;;;11.40;;
215;SDS011;70668;48.81286795;9.14184224;2023-09-07T06:45:13;19.00;;;10.90;;
215;SDS011;70668;48.81286795;9.14184224;2023-09-07T06:47:42;23.10;;;11.80;;
215;SDS011;70668;48.81286795;9.14184224;2023-09-07T06:50:13;18.63;;;11.90;;
215;SDS011;70668;48.81286795;9.14184224;2023-09-07T06:52:42;22.10;;;12.23;;
215;SDS011;70668;48.81286795;9.14184224;2023-09-07T06:55:10;24.83;;;11.47;;
215;SDS011;70668;48.81286795;9.14184224;2023-09-07T06:57:39;20.50;;;11.70;;
215;SDS011;70668;48.81286795;9.14184224;2023-09-07T07:00:08;19.03;;;11.60;;
215;SDS011;70668;48.81286795;9.14184224;2023-09-07T07:02:38;19.13;;;12.00;;
215;SDS011;70668;48.81286795;9.14184224;2023-09-07T07:05:08;17.93;;;11.83;;
215;SDS011;70668;48.81286795;9.14184224;2023-09-07T07:07:39;20.80;;;11.33;;
215;SDS011;70668;48.81286795;9.14184224;2023-09-07T07:10:08;18.50;;;11.20;;
215;SDS011;70668;48.81286795;9.14184224;2023-09-07T07:12:36;19.40;;;11.10;;
215;SDS011;70668;48.81286795;9.14184224;2023-09-07T07:15:06;19.67;;;11.77;;
215;SDS011;70668;48.81286795;9.14184224;2023-09-07T07:17:37;19.27;;;11.60;;
215;SDS011;70668;48.81286795;9.14184224;2023-09-07T07:20:06;18.17;;;11.30;;
215;SDS011;70668;48.81286795;9.14184224;2023-09-07T07:22:36;19.60;;;11.57;;
215;SDS011;70668;48.81286795;9.14184224;2023-09-07T07:25:07;20.30;;;11.23;;
215;SDS011;70668;48.81286795;9.14184224;2023-09-07T07:27:36;19.83;;;11.30;;
215;SDS011;70668;48.81286795;9.14184224;2023-09-07T07:30:05;15.67;;;10.70;;
215;SDS011;70668;48.81286795;9.14184224;2023-09-07T07:32:34;23.13;;;11.93;;
215;SDS011;70668;48.81286795;9.14184224;2023-09-07T07:35:03;20.77;;;11.10;;
215;SDS011;70668;48.81286795;9.14184224;2023-09-07T07:37:32;25.00;;;12.30;;
215;SDS011;70668;48.81286795;9.14184224;2023-09-07T07:40:06;24.87;;;11.80;;
215;SDS011;70668;48.81286795;9.14184224;2023-09-07T07:42:35;18.70;;;11.43;;
215;SDS011;70668;48.81286795;9.14184224;2023-09-07T07:45:04;22.13;;;10.73;;
215;SDS011;70668;48.81286795;9.14184224;2023-09-07T07:47:34;16.60;;;10.70;;
215;SDS011;70668;48.81286795;9.14184224;2023-09-07T07:50:03;20.90;;;11.80;;
215;SDS011;70668;48.81286795;9.14184224;2023-09-07T07:52:32;19.73;;;11.13;;
215;SDS011;70668;48.81286795;9.14184224;2023-09-07T07:55:01;16.43;;;10.97;;
215;SDS011;70668;48.81286795;9.14184224;2023-09-07T07:57:32;18.23;;;10.70;;
215;SDS011;70668;48.81286795;9.14184224;2023-09-07T08:00:00;17.50;;;10.93;;
215;SDS011;70668;48.81286795;9.14184224;2023-09-07T08:02:39;25.43;;;10.50;;
215;SDS011;70668;48.81286795;9.14184224;2023-09-07T08:05:10;18.83;;;10.23;;
215;SDS011;70668;48.81286795;9.14184224;2023-09-07T08:07:39;17.90;;;10.00;;
215;SDS011;70668;48.81286795;9.14184224;2023-09-07T08:10:07;19.70;;;10.43;;
215;SDS011;70668;48.81286795;9.14184224;2023-09-07T08:12:39;15.50;;;10.60;;
215;SDS011;70668;48.81286795;9.14184224;2023-09-07T08:15:07;20.10;;;10.30;;
215;SDS011;70668;48.81286795;9.14184224;2023-09-07T08:17:36;15.17;;;10.10;;
215;SDS011;70668;48.81286795;9.14184224;2023-09-07T08:20:05;19.07;;;10.10;;
215;SDS011;70668;48.81286795;9.14184224;2023-09-07T08:22:36;14.60;;;9.80;;
215;SDS011;70668;48.81286795;9.14184224;2023-09-07T08:25:07;13.40;;;9.57;;
215;SDS011;70668;48.81286795;9.14184224;2023-09-07T08:27:39;16.10;;;9.90;;
215;SDS011;70668;48.81286795;9.14184224;2023-09-07T08:30:12;18.23;;;10.70;;
215;SDS011;70668;48.81286795;9.14184224;2023-09-07T08:32:42;13.40;;;9.40;;
215;SDS011;70668;48.81286795;9.14184224;2023-09-07T08:35:11;17.63;;;8.90;;
215;SDS011;70668;48.81286795;9.14184224;2023-09-07T08:37:42;13.10;;;9.77;;
215;SDS011;70668;48.81286795;9.14184224;2023-09-07T08:40:10;14.87;;;8.93;;
215;SDS011;70668;48.81286795;9.14184224;2023-09-07T08:42:42;13.83;;;9.90;;
215;SDS011;70668;48.81286795;9.14184224;2023-09-07T08:45:11;14.23;;;9.33;;
215;SDS011;70668;48.81286795;9.14184224;2023-09-07T08:47:41;13.77;;;10.03;;
215;SDS011;70668;48.81286795;9.14184224;2023-09-07T08:50:11;14.23;;;10.83;;
215;SDS011;70668;48.81286795;9.14184224;2023-09-07T08:52:42;17.53;;;9.70;;
215;SDS011;70668;48.81286795;9.14184224;2023-09-07T08:55:11;17.97;;;10.00;;
215;SDS011;70668;48.81286795;9.14184224;2023-09-07T08:57:42;14.80;;;10.47;;
215;SDS011;70668;48.81286795;9.14184224;2023-09-07T09:00:11;15.73;;;10.47;;
215;SDS011;70668;48.81286795;9.14184224;2023-09-07T09:02:41;14.30;;;10.20;;
215;SDS011;70668;48.81286795;9.14184224;2023-09-07T09:05:11;18.73;;;9.80;;
215;SDS011;70668;48.81286795;9.14184224;2023-09-07T09:07:40;17.00;;;10.60;;
215;SDS011;70668;48.81286795;9.14184224;2023-09-07T09:10:09;13.70;;;10.10;;
215;SDS011;70668;48.81286795;9.14184224;2023-09-07T09:12:47;16.00;;;9.90;;
215;SDS011;70668;48.81286795;9.14184224;2023-09-07T09:15:15;16.57;;;10.13;;
215;SDS011;70668;48.81286795;9.14184224;2023-09-07T09:17:43;14.37;;;9.97;;
215;SDS011;70668;48.81286795;9.14184224;2023-09-07T09:20:21;15.60;;;10.97;;
215;SDS011;70668;48.81286795;9.14184224;2023-09-07T09:22:52;18.93;;;10.93;;
215;SDS011;70668;48.81286795;9.14184224;2023-09-07T09:25:21;16.00;;;10.73;;
215;SDS011;70668;48.81286795;9.14184224;2023-09-07T09:27:54;18.40;;;10.87;;
215;SDS011;70668;48.81286795;9.14184224;2023-09-07T09:30:22;15.17;;;10.30;;
215;SDS011;70668;48.81286795;9.14184224;2023-09-07T09:32:51;20.03;;;11.70;;
215;SDS011;70668;48.81286795;9.14184224;2023-09-07T09:35:19;18.70;;;10.80;;
215;SDS011;70668;48.81286795;9.14184224;2023-09-07T09:37:48;20.40;;;11.67;;
215;SDS011;70668;48.81286795;9.14184224;2023-09-07T09:40:18;39.73;;;11.07;;
215;SDS011;70668;48.81286795;9.14184224;2023-09-07T09:42:48;15.80;;;10.17;;
215;SDS011;70668;48.81286795;9.14184224;2023-09-07T09:45:19;17.40;;;11.20;;
215;SDS011;70668;48.81286795;9.14184224;2023-09-07T09:47:48;14.97;;;10.47;;
215;SDS011;70668;48.81286795;9.14184224;2023-09-07T09:50:18;14.47;;;10.50;;
215;SDS011;70668;48.81286795;9.14184224;2023-09-07T09:52:46;16.07;;;10.90;;
215;SDS011;70668;48.81286795;9.14184224;2023-09-07T09:55:16;16.57;;;10.87;;
215;SDS011;70668;48.81286795;9.14184224;2023-09-07T09:57:45;19.60;;;10.53;;
215;SDS011;70668;48.81286795;9.14184224;2023-09-07T10:00:15;16.17;;;10.30;;
215;SDS011;70668;48.81286795;9.14184224;2023-09-07T10:02:59;20.30;;;10.57;;
215;SDS011;70668;48.81286795;9.14184224;2023-09-07T10:05:30;16.73;;;10.80;;
215;SDS011;70668;48.81286795;9.14184224;2023-09-07T10:08:00;15.53;;;10.40;;
215;SDS011;70668;48.81286795;9.14184224;2023-09-07T10:10:34;15.50;;;11.70;;
215;SDS011;70668;48.81286795;9.14184224;2023-09-07T10:13:04;15.40;;;10.77;;
215;SDS011;70668;48.81286795;9.14184224;2023-09-07T10:15:33;17.17;;;10.03;;
215;SDS011;70668;48.81286795;9.14184224;2023-09-07T10:18:11;18.73;;;11.20;;
215;SDS011;70668;48.81286795;9.14184224;2023-09-07T10:20:49;14.90;;;10.07;;
215;SDS011;70668;48.81286795;9.14184224;2023-09-07T10:23:19;15.67;;;10.50;;
215;SDS011;70668;48.81286795;9.14184224;2023-09-07T10:25:48;15.33;;;10.83;;
215;SDS011;70668;48.81286795;9.14184224;2023-09-07T10:28:18;17.37;;;10.00;;
215;SDS011;70668;48.81286795;9.14184224;2023-09-07T10:30:57;21.30;;;10.43;;
215;SDS011;70668;48.81286795;9.14184224;2023-09-07T10:33:35;17.57;;;10.90;;
215;SDS011;70668;48.81286795;9.14184224;2023-09-07T10:36:03;19.70;;;10.77;;
215;SDS011;70668;48.81286795;9.14184224;2023-09-07T10:38:32;18.60;;;10.53;;
215;SDS011;70668;48.81286795;9.14184224;2023-09-07T10:41:02;15.00;;;9.87;;
215;SDS011;70668;48.81286795;9.14184224;2023-09-07T10:43:31;14.80;;;10.70;;
215;SDS011;70668;48.81286795;9.14184224;2023-09-07T10:46:00;16.60;;;11.70;;
215;SDS011;70668;48.81286795;9.14184224;2023-09-07T10:48:29;16.20;;;11.10;;
215;SDS011;70668;48.81286795;9.14184224;2023-09-07T10:51:01;16.83;;;10.23;;
215;SDS011;70668;48.81286795;9.14184224;2023-09-07T10:53:29;18.93;;;11.13;;
215;SDS011;70668;48.81286795;9.14184224;2023-09-07T10:55:59;18.50;;;10.63;;
215;SDS011;70668;48.81286795;9.14184224;2023-09-07T10:58:30;16.93;;;10.20;;
215;SDS011;70668;48.81286795;9.14184224;2023-09-07T11:00:59;13.33;;;9.73;;
215;SDS011;70668;48.81286795;9.14184224;2023-09-07T11:03:28;15.50;;;10.10;;
215;SDS011;70668;48.81286795;9.14184224;2023-09-07T11:05:58;16.57;;;10.13;;
215;SDS011;70668;48.81286795;9.14184224;2023-09-07T11:08:31;14.40;;;10.57;;
215;SDS011;70668;48.81286795;9.14184224;2023-09-07T11:10:59;19.63;;;10.40;;
215;SDS011;70668;48.81286795;9.14184224;2023-09-07T11:13:28;16.40;;;10.90;;
215;SDS011;70668;48.81286795;9.14184224;2023-09-07T11:15:57;17.70;;;10.20;;
215;SDS011;70668;48.81286795;9.14184224;2023-09-07T11:18:26;17.00;;;10.83;;
215;SDS011;70668;48.81286795;9.14184224;2023-09-07T11:20:55;16.33;;;10.63;;
215;SDS011;70668;48.81286795;9.14184224;2023-09-07T11:23:27;14.87;;;10.27;;
215;SDS011;70668;48.81286795;9.14184224;2023-09-07T11:26:03;14.80;;;10.50;;
215;SDS011;70668;48.81286795;9.14184224;2023-09-07T11:28:32;14.70;;;9.97;;
215;SDS011;70668;48.81286795;9.14184224;2023-09-07T11:31:01;15.83;;;9.47;;
215;SDS011;70668;48.81286795;9.14184224;2023-09-07T11:33:31;14.40;;;9.20;;
215;SDS011;70668;48.81286795;9.14184224;2023-09-07T11:36:00;13.90;;;9.80;;
215;SDS011;70668;48.81286795;9.14184224;2023-09-07T11:38:35;15.63;;;10.23;;
215;SDS011;70668;48.81286795;9.14184224;2023-09-07T11:41:04;17.57;;;9.70;;
215;SDS011;70668;48.81286795;9.14184224;2023-09-07T11:43:33;15.80;;;10.50;;
215;SDS011;70668;48.81286795;9.14184224;2023-09-07T11:46:02;15.20;;;10.03;;
215;SDS011;70668;48.81286795;9.14184224;2023-09-07T11:48:31;12.93;;;9.47;;
215;SDS011;70668;48.81286795;9.14184224;2023-09-07T11:50:59;13.70;;;8.70;;
215;SDS011;70668;48.81286795;9.14184224;2023-09-07T11:53:28;13.70;;;9.70;;
215;SDS011;70668;48.81286795;9.14184224;2023-09-07T11:56:00;12.43;;;9.10;;
215;SDS011;70668;48.81286795;9.14184224;2023-09-07T11:58:28;16.67;;;9.17;;
215;SDS011;70668;48.81286795;9.14184224;2023-09-07T12:00:56;14.40;;;8.87;;
215;SDS011;70668;48.81286795;9.14184224;2023-09-07T12:03:25;14.43;;;8.60;;
215;SDS011;70668;48.81286795;9.14184224;2023-09-07T12:05:55;11.00;;;8.60;;
215;SDS011;70668;48.81286795;9.14184224;2023-09-07T12:08:23;12.47;;;8.50;;
215;SDS011;70668;48.81286795;9.14184224;2023-09-07T12:10:52;15.07;;;8.93;;
215;SDS011;70668;48.81286795;9.14184224;2023-09-07T12:13:23;14.70;;;9.10;;
215;SDS011;70668;48.81286795;9.14184224;2023-09-07T12:15:51;14.77;;;8.57;;
215;SDS011;70668;48.81286795;9.14184224;2023-09-07T12:18:20;12.93;;;8.80;;
215;SDS011;70668;48.81286795;9.14184224;2023-09-07T12:20:49;14.90;;;8.63;;
215;SDS011;70668;48.81286795;9.14184224;2023-09-07T12:23:18;13.23;;;9.20;;
215;SDS011;70668;48.81286795;9.14184224;2023-09-07T12:25:46;11.20;;;8.50;;
215;SDS011;70668;48.81286795;9.14184224;2023-09-07T12:28:16;10.90;;;7.97;;
215;SDS011;70668;48.81286795;9.14184224;2023-09-07T12:30:48;10.77;;;8.23;;
215;SDS011;70668;48.81286795;9.14184224;2023-09-07T12:33:16;12.87;;;8.73;;
215;SDS011;70668;48.81286795;9.14184224;2023-09-07T12:35:44;12.60;;;8.20;;
215;SDS011;70668;48.81286795;9.14184224;2023-09-07T12:38:13;11.33;;;8.20;;
215;SDS011;70668;48.81286795;9.14184224;2023-09-07T12:40:43;14.90;;;9.00;;
215;SDS011;70668;48.81286795;9.14184224;2023-09-07T12:43:11;11.00;;;8.30;;
215;SDS011;70668;48.81286795;9.14184224;2023-09-07T12:45:40;15.40;;;8.30;;
215;SDS011;70668;48.81286795;9.14184224;2023-09-07T12:48:11;10.57;;;8.37;;
215;SDS011;70668;48.81286795;9.14184224;2023-09-07T12:50:39;10.60;;;7.90;;
215;SDS011;70668;48.81286795;9.14184224;2023-09-07T12:53:08;12.20;;;8.40;;
215;SDS011;70668;48.81286795;9.14184224;2023-09-07T12:55:36;18.50;;;8.33;;
215;SDS011;70668;48.81286795;9.14184224;2023-09-07T12:58:05;13.23;;;7.60;;
215;SDS011;70668;48.81286795;9.14184224;2023-09-07T13:00:33;10.00;;;8.17;;
215;SDS011;70668;48.81286795;9.14184224;2023-09-07T13:03:02;11.30;;;8.33;;
215;SDS011;70668;48.81286795;9.14184224;2023-09-07T13:05:33;11.80;;;8.73;;
215;SDS011;70668;48.81286795;9.14184224;2023-09-07T13:08:02;12.43;;;8.20;;
215;SDS011;70668;48.81286795;9.14184224;2023-09-07T13:10:31;11.33;;;8.17;;